createdAt,value
2022-12-13T00:00:02.925Z,-3.9
2022-12-13T00:20:03.065Z,-3.8
2022-12-13T00:40:03.195Z,-3.8
2022-12-13T01:00:02.766Z,-3.8
2022-12-13T01:20:02.411Z,-4
2022-12-13T01:40:03.320Z,-4
2022-12-13T02:00:02.767Z,-4
2022-12-13T02:20:02.382Z,-4
2022-12-13T02:40:02.966Z,-3.8
2022-12-13T03:00:02.365Z,-3.8
2022-12-13T03:20:02.992Z,-3.7
2022-12-13T03:40:02.641Z,-3.7
2022-12-13T04:00:03.164Z,-3.8
2022-12-13T04:20:02.864Z,-3.8
2022-12-13T04:40:02.395Z,-3.8
2022-12-13T05:00:02.887Z,-3.8
2022-12-13T05:20:02.570Z,-3.8
2022-12-13T05:40:03.123Z,-3.6
2022-12-13T06:00:02.518Z,-3.6
2022-12-13T06:20:02.411Z,-3.7
2022-12-13T06:40:02.323Z,-3.7
2022-12-13T07:00:03.133Z,-3.8
2022-12-13T07:20:02.748Z,-3.7
2022-12-13T07:40:04.710Z,-3.5
2022-12-13T08:00:02.818Z,-3.7
2022-12-13T08:20:03.266Z,-3.7
2022-12-13T08:40:02.642Z,-3.6
2022-12-13T09:00:04.474Z,-3.4
2022-12-13T09:20:03.231Z,-3.2
2022-12-13T09:40:15.860Z,-3.3
2022-12-13T10:00:02.954Z,-3.3
2022-12-13T10:20:02.636Z,-3.3
2022-12-13T10:40:03.201Z,-3.3
2022-12-13T11:00:03.141Z,-3.3
2022-12-13T11:20:02.877Z,-3.3
2022-12-13T11:40:02.556Z,-3.3
2022-12-13T12:00:02.963Z,-3.2
2022-12-13T12:20:03.150Z,-3
2022-12-13T12:40:02.605Z,-3
2022-12-13T13:00:03.135Z,-2.9
2022-12-13T13:20:11.400Z,-3
2022-12-13T13:40:02.994Z,-2.8
2022-12-13T14:00:02.724Z,-2.8
2022-12-13T14:20:02.668Z,-2.8
2022-12-13T14:40:02.466Z,-2.8
2022-12-13T15:00:03.355Z,-2.7
2022-12-13T15:20:02.935Z,-2.8
2022-12-13T15:40:02.565Z,-2.9
2022-12-13T16:00:03.456Z,-3
2022-12-13T16:20:09.272Z,-3.1
2022-12-13T16:40:02.308Z,-3.2
2022-12-13T17:00:02.734Z,-3.2
2022-12-13T17:20:02.506Z,-3.2
2022-12-13T17:40:03.229Z,-3.2
2022-12-13T18:00:03.773Z,-3.3
2022-12-13T18:20:04.834Z,-3.5
2022-12-13T18:40:03.457Z,-3.7
2022-12-13T19:00:03.970Z,-4
2022-12-13T19:20:02.934Z,-4.2
2022-12-13T19:40:02.721Z,-4.5
2022-12-13T20:00:03.153Z,-4.7
2022-12-13T20:20:04.252Z,-4.9
2022-12-13T20:40:03.971Z,-5.2
2022-12-13T21:00:03.829Z,-5.4
2022-12-13T21:20:03.085Z,-5.6
2022-12-13T21:40:02.817Z,-5.7
2022-12-13T22:00:02.538Z,-5.9
2022-12-13T22:20:03.187Z,-6.2
2022-12-13T22:40:03.023Z,-6.5
2022-12-13T23:00:02.475Z,-6.6
2022-12-13T23:20:03.228Z,-6.8
2022-12-13T23:40:02.770Z,-6.6
